createdAt,value
2019-05-15T00:02:23.587Z,1.43
2019-05-15T00:05:45.653Z,1.40
2019-05-15T00:09:08.459Z,1.70
2019-05-15T00:12:30.937Z,1.73
2019-05-15T00:15:53.739Z,1.60
2019-05-15T00:19:16.155Z,1.53
2019-05-15T00:22:38.819Z,1.63
2019-05-15T00:26:01.629Z,1.87
2019-05-15T00:29:24.170Z,2.00
2019-05-15T00:32:48.514Z,1.80
2019-05-15T00:36:10.438Z,1.63
2019-05-15T00:39:32.930Z,1.80
2019-05-15T00:42:55.348Z,1.70
2019-05-15T00:46:18.365Z,1.40
2019-05-15T00:49:41.251Z,1.60
2019-05-15T00:53:03.654Z,1.30
2019-05-15T00:56:28.308Z,1.40
2019-05-15T00:59:50.372Z,1.70
2019-05-15T01:03:12.774Z,1.63
2019-05-15T01:06:35.429Z,1.60
2019-05-15T01:09:58.023Z,1.60
2019-05-15T01:13:20.409Z,1.60
2019-05-15T01:16:42.728Z,1.80
2019-05-15T01:20:08.302Z,1.40
2019-05-15T01:23:32.687Z,1.30
2019-05-15T01:26:55.068Z,1.70
2019-05-15T01:30:18.036Z,1.63
2019-05-15T01:33:40.227Z,1.33
2019-05-15T01:37:02.546Z,1.60
2019-05-15T01:40:24.788Z,1.83
2019-05-15T01:43:48.917Z,1.70
2019-05-15T01:47:11.069Z,1.70
2019-05-15T01:50:33.849Z,1.87
2019-05-15T01:53:58.247Z,1.80
2019-05-15T01:57:20.219Z,1.90
2019-05-15T02:00:42.960Z,1.73
2019-05-15T02:04:05.669Z,1.80
2019-05-15T02:07:28.582Z,2.73
2019-05-15T02:10:51.036Z,3.53
2019-05-15T02:14:13.634Z,4.20
2019-05-15T02:17:35.856Z,4.47
2019-05-15T02:20:58.845Z,4.40
2019-05-15T02:24:21.763Z,3.17
2019-05-15T02:27:44.469Z,2.33
2019-05-15T02:31:09.966Z,1.87
2019-05-15T02:34:30.534Z,2.17
2019-05-15T02:37:53.101Z,1.80
2019-05-15T02:41:15.461Z,1.43
2019-05-15T02:44:39.938Z,1.97
2019-05-15T02:48:02.306Z,1.60
2019-05-15T02:51:24.869Z,1.80
2019-05-15T02:54:49.832Z,1.70
2019-05-15T02:58:11.634Z,1.80
2019-05-15T03:01:33.711Z,1.60
2019-05-15T03:04:55.786Z,1.70
2019-05-15T03:08:19.505Z,1.57
2019-05-15T03:11:42.276Z,1.77
2019-05-15T03:15:09.216Z,1.63
2019-05-15T03:18:30.322Z,1.90
2019-05-15T03:21:52.695Z,1.70
2019-05-15T03:25:15.369Z,1.70
2019-05-15T03:28:39.206Z,1.90
2019-05-15T03:32:18.188Z,1.80
2019-05-15T03:35:25.257Z,1.80
2019-05-15T03:38:49.897Z,1.63
2019-05-15T03:42:11.461Z,1.70
2019-05-15T03:45:44.207Z,2.30
2019-05-15T03:49:08.655Z,1.97
2019-05-15T03:52:30.345Z,1.63
2019-05-15T03:55:53.350Z,2.03
2019-05-15T03:59:19.119Z,2.33
2019-05-15T04:02:40.293Z,2.40
2019-05-15T04:06:02.407Z,1.80
2019-05-15T04:09:24.759Z,2.00
2019-05-15T04:12:49.297Z,1.80
2019-05-15T04:16:11.633Z,1.97
2019-05-15T04:19:34.178Z,2.10
2019-05-15T04:23:00.014Z,2.00
2019-05-15T04:26:21.944Z,2.10
2019-05-15T04:29:44.136Z,2.20
2019-05-15T04:33:09.499Z,1.90
2019-05-15T04:36:30.733Z,1.80
2019-05-15T04:39:52.850Z,1.80
2019-05-15T04:43:14.955Z,1.50
2019-05-15T04:46:39.207Z,1.57
2019-05-15T04:50:01.367Z,2.10
2019-05-15T04:53:23.905Z,2.00
2019-05-15T04:56:48.726Z,1.80
2019-05-15T05:00:10.688Z,1.80
2019-05-15T05:03:34.669Z,1.93
2019-05-15T05:06:58.703Z,1.70
2019-05-15T05:10:21.392Z,1.70
2019-05-15T05:13:43.895Z,1.80
2019-05-15T05:17:09.203Z,1.90
2019-05-15T05:20:30.301Z,1.93
2019-05-15T05:23:52.735Z,1.70
2019-05-15T05:27:15.067Z,1.53
2019-05-15T05:30:38.577Z,2.10
2019-05-15T05:34:00.821Z,1.80
2019-05-15T05:37:22.971Z,2.00
2019-05-15T05:40:45.246Z,2.00
2019-05-15T05:44:08.196Z,2.03
2019-05-15T05:47:30.781Z,1.50
2019-05-15T05:50:53.679Z,1.83
2019-05-15T05:54:18.206Z,1.90
2019-05-15T05:57:40.409Z,1.77
2019-05-15T06:01:03.186Z,2.10
2019-05-15T06:04:27.879Z,1.43
2019-05-15T06:07:50.059Z,1.80
2019-05-15T06:11:12.887Z,1.70
2019-05-15T06:14:37.885Z,2.00
2019-05-15T06:17:59.546Z,2.00
2019-05-15T06:21:22.183Z,2.10
2019-05-15T06:24:45.402Z,1.63
2019-05-15T06:28:22.904Z,1.80
2019-05-15T06:31:48.213Z,2.00
2019-05-15T06:35:10.113Z,1.90
2019-05-15T06:38:32.573Z,1.83
2019-05-15T06:41:55.186Z,1.53
2019-05-15T06:45:19.359Z,1.60
2019-05-15T06:48:41.486Z,1.90
2019-05-15T06:52:04.094Z,1.77
2019-05-15T06:55:28.790Z,1.80
2019-05-15T06:58:51.164Z,1.30
2019-05-15T07:02:13.743Z,1.83
2019-05-15T07:05:38.447Z,1.20
2019-05-15T07:09:00.622Z,1.20
2019-05-15T07:12:23.348Z,1.77
2019-05-15T07:15:45.862Z,1.13
2019-05-15T07:19:08.380Z,0.97
2019-05-15T07:22:30.993Z,1.13
2019-05-15T07:25:53.503Z,1.00
2019-05-15T07:29:18.634Z,1.57
2019-05-15T07:32:39.964Z,0.93
2019-05-15T07:36:02.181Z,1.30
2019-05-15T07:39:24.623Z,1.10
2019-05-15T07:42:49.102Z,0.90
2019-05-15T07:46:11.227Z,1.00
2019-05-15T07:49:33.851Z,1.00
2019-05-15T07:52:56.135Z,1.23
2019-05-15T07:56:18.738Z,1.20
2019-05-15T07:59:41.108Z,1.43
2019-05-15T08:03:03.474Z,1.63
2019-05-15T08:06:28.740Z,1.23
2019-05-15T08:09:50.196Z,1.47
2019-05-15T08:13:12.827Z,1.50
2019-05-15T08:16:34.904Z,1.50
2019-05-15T08:19:58.268Z,1.50
2019-05-15T08:23:20.587Z,1.40
2019-05-15T08:26:45.574Z,1.40
2019-05-15T08:30:08.944Z,1.67
2019-05-15T08:33:31.497Z,1.20
2019-05-15T08:36:54.221Z,1.50
2019-05-15T08:40:17.895Z,1.30
2019-05-15T08:43:40.316Z,1.30
2019-05-15T08:47:02.695Z,1.40
2019-05-15T08:50:24.947Z,1.10
2019-05-15T08:53:48.773Z,1.10
2019-05-15T08:57:11.064Z,1.43
2019-05-15T09:00:33.367Z,1.10
2019-05-15T09:03:58.026Z,0.80
2019-05-15T09:07:19.404Z,1.10
2019-05-15T09:10:41.499Z,1.00
2019-05-15T09:14:04.126Z,1.30
2019-05-15T09:17:28.452Z,1.27
2019-05-15T09:20:50.514Z,1.27
2019-05-15T09:24:12.607Z,1.10
2019-05-15T09:27:35.415Z,1.20
2019-05-15T09:30:59.065Z,1.20
2019-05-15T09:34:22.000Z,1.60
2019-05-15T09:37:44.491Z,1.30
2019-05-15T09:41:08.982Z,1.30
2019-05-15T09:44:31.225Z,1.70
2019-05-15T09:47:53.730Z,1.23
2019-05-15T09:51:18.130Z,1.60
2019-05-15T09:54:40.285Z,1.33
2019-05-15T09:58:02.863Z,1.20
2019-05-15T10:01:28.336Z,1.20
2019-05-15T10:05:05.350Z,1.23
2019-05-15T10:08:14.195Z,1.60
2019-05-15T10:11:38.295Z,1.10
2019-05-15T10:15:01.152Z,1.40
2019-05-15T10:18:23.266Z,1.10
2019-05-15T10:21:52.460Z,1.07
2019-05-15T10:25:10.058Z,2.20
2019-05-15T10:28:32.684Z,1.70
2019-05-15T10:31:55.139Z,1.83
2019-05-15T10:35:25.567Z,1.20
2019-05-15T10:38:42.072Z,1.20
2019-05-15T10:42:04.518Z,1.43
2019-05-15T10:45:29.574Z,1.30
2019-05-15T10:48:51.530Z,1.20
2019-05-15T10:52:13.889Z,1.57
2019-05-15T10:55:39.489Z,1.40
2019-05-15T10:59:00.639Z,1.90
2019-05-15T11:02:23.231Z,3.77
2019-05-15T11:05:46.066Z,1.73
2019-05-15T11:09:08.789Z,1.40
2019-05-15T11:12:31.102Z,1.20
2019-05-15T11:15:53.661Z,1.50
2019-05-15T11:19:16.567Z,1.47
2019-05-15T11:22:42.905Z,1.20
2019-05-15T11:26:03.323Z,1.43
2019-05-15T11:29:25.668Z,1.23
2019-05-15T11:32:48.801Z,1.20
2019-05-15T11:36:11.884Z,1.27
2019-05-15T11:39:34.711Z,1.60
2019-05-15T11:42:57.541Z,1.37
2019-05-15T11:46:20.473Z,1.10
2019-05-15T11:49:42.882Z,1.40
2019-05-15T11:53:05.263Z,1.10
2019-05-15T11:56:29.595Z,1.40
2019-05-15T11:59:55.395Z,1.20
2019-05-15T12:03:18.917Z,1.60
2019-05-15T12:06:42.106Z,1.60
2019-05-15T12:10:05.274Z,1.30
2019-05-15T12:13:28.067Z,1.10
2019-05-15T12:17:05.048Z,1.70
2019-05-15T12:20:15.496Z,2.10
2019-05-15T12:23:40.641Z,1.60
2019-05-15T12:30:29.622Z,1.80
2019-05-15T12:33:51.336Z,1.83
2019-05-15T12:37:13.758Z,1.63
2019-05-15T13:01:16.557Z,2.00
2019-05-15T13:04:28.297Z,1.83
2019-05-15T13:07:50.106Z,1.80
2019-05-15T13:11:15.104Z,2.10
2019-05-15T13:14:38.828Z,1.87
2019-05-15T13:18:01.104Z,2.07
2019-05-15T13:21:24.056Z,1.83
2019-05-15T13:24:48.305Z,1.27
2019-05-15T13:28:10.747Z,1.60
2019-05-15T13:31:33.429Z,1.53
2019-05-15T13:34:59.278Z,1.67
2019-05-15T13:38:20.213Z,1.63
2019-05-15T13:41:42.894Z,1.73
2019-05-15T13:45:05.881Z,1.63
2019-05-15T13:48:29.628Z,2.97
2019-05-15T13:51:52.559Z,2.20
2019-05-15T13:55:14.829Z,1.60
2019-05-15T13:58:38.879Z,2.00
2019-05-15T14:02:02.086Z,2.00
2019-05-15T14:05:24.675Z,2.20
2019-05-15T14:08:48.783Z,1.70
2019-05-15T14:12:12.899Z,2.13
2019-05-15T14:15:35.321Z,2.80
2019-05-15T14:18:58.759Z,2.77
2019-05-15T14:22:21.231Z,2.43
2019-05-15T14:25:44.397Z,3.00
2019-05-15T14:29:08.980Z,3.47
2019-05-15T14:32:38.369Z,2.80
2019-05-15T14:35:57.453Z,2.40
2019-05-15T14:39:21.030Z,1.83
2019-05-15T14:42:43.256Z,2.20
2019-05-15T14:46:09.043Z,2.30
2019-05-15T14:49:34.420Z,1.63
2019-05-15T14:52:55.642Z,2.07
2019-05-15T14:56:18.514Z,1.60
2019-05-15T14:59:41.085Z,1.60
2019-05-15T15:03:03.804Z,1.87
2019-05-15T15:06:26.476Z,1.37
2019-05-15T15:09:49.230Z,1.40
2019-05-15T15:13:12.183Z,1.80
2019-05-15T15:16:34.647Z,1.70
2019-05-15T15:20:00.159Z,1.50
2019-05-15T15:23:21.177Z,1.60
2019-05-15T15:26:43.652Z,1.63
2019-05-15T15:30:08.855Z,1.50
2019-05-15T15:33:30.546Z,1.50
2019-05-15T15:36:53.027Z,2.10
2019-05-15T15:40:15.942Z,1.90
2019-05-15T15:43:38.786Z,1.40
2019-05-15T15:47:01.302Z,1.87
2019-05-15T15:50:23.882Z,1.87
2019-05-15T15:53:48.029Z,1.70
2019-05-15T15:57:10.595Z,1.80
2019-05-15T16:00:33.227Z,1.30
2019-05-15T16:03:55.663Z,1.60
2019-05-15T16:07:18.230Z,1.50
2019-05-15T16:10:41.023Z,1.63
2019-05-15T16:14:03.695Z,1.80
2019-05-15T16:17:28.522Z,1.20
2019-05-15T16:20:50.389Z,1.77
2019-05-15T16:24:17.799Z,1.80
2019-05-15T16:27:38.209Z,1.40
2019-05-15T16:31:01.027Z,1.70
2019-05-15T16:34:23.522Z,1.40
2019-05-15T16:37:46.038Z,1.33
2019-05-15T16:41:08.958Z,1.93
2019-05-15T16:44:32.118Z,1.60
2019-05-15T16:47:54.785Z,1.83
2019-05-15T16:51:17.999Z,1.90
2019-05-15T16:54:40.750Z,1.60
2019-05-15T16:58:03.342Z,1.53
2019-05-15T17:01:26.634Z,2.20
2019-05-15T17:04:50.346Z,1.53
2019-05-15T17:08:13.031Z,1.53
2019-05-15T17:11:38.275Z,1.80
2019-05-15T17:15:00.069Z,2.40
2019-05-15T17:18:22.650Z,1.80
2019-05-15T17:21:48.013Z,1.90
2019-05-15T17:25:10.275Z,1.93
2019-05-15T17:28:32.910Z,1.20
2019-05-15T17:31:55.334Z,1.63
2019-05-15T17:35:18.474Z,1.87
2019-05-15T17:38:41.218Z,2.20
2019-05-15T17:43:58.063Z,1.60
2019-05-15T17:47:20.746Z,1.87
2019-05-15T17:50:48.664Z,1.80
2019-05-15T17:54:08.830Z,1.80
2019-05-15T17:57:31.613Z,1.73
2019-05-15T18:00:54.458Z,2.00
2019-05-15T18:04:18.942Z,2.27
2019-05-15T18:07:41.537Z,2.73
2019-05-15T18:11:04.335Z,2.40
2019-05-15T18:14:26.960Z,2.50
2019-05-15T18:17:49.666Z,2.63
2019-05-15T18:21:12.291Z,2.97
2019-05-15T18:24:35.010Z,2.70
2019-05-15T18:27:59.252Z,2.93
2019-05-15T18:31:22.256Z,2.43
2019-05-15T18:34:45.215Z,2.50
2019-05-15T18:38:08.525Z,1.90
2019-05-15T18:41:31.827Z,2.50
2019-05-15T18:44:54.451Z,2.90
2019-05-15T18:48:18.346Z,3.03
2019-05-15T18:51:41.446Z,2.50
2019-05-15T18:55:04.404Z,2.00
2019-05-15T18:58:26.951Z,2.37
2019-05-15T19:01:49.759Z,2.83
2019-05-15T19:05:12.814Z,2.40
2019-05-15T19:08:35.451Z,2.50
2019-05-15T19:11:58.220Z,2.00
2019-05-15T19:15:21.175Z,2.90
2019-05-15T19:18:43.613Z,2.23
2019-05-15T19:22:07.864Z,2.13
2019-05-15T19:25:30.635Z,1.90
2019-05-15T19:28:53.010Z,2.63
2019-05-15T19:32:17.576Z,1.50
2019-05-15T19:37:20.443Z,2.40
2019-05-15T19:40:44.127Z,2.10
2019-05-15T19:44:08.782Z,2.60
2019-05-15T19:47:30.945Z,2.70
2019-05-15T19:50:53.886Z,2.57
2019-05-15T19:54:18.369Z,2.60
2019-05-15T19:57:40.865Z,2.77
2019-05-15T20:01:03.079Z,2.30
2019-05-15T20:04:27.881Z,2.57
2019-05-15T20:07:50.491Z,2.30
2019-05-15T20:11:12.959Z,2.40
2019-05-15T20:14:38.172Z,2.07
2019-05-15T20:17:59.703Z,2.40
2019-05-15T20:21:22.596Z,2.10
2019-05-15T20:24:45.107Z,1.93
2019-05-15T20:28:08.419Z,1.93
2019-05-15T20:31:31.482Z,2.83
2019-05-15T20:34:53.638Z,1.87
2019-05-15T20:38:15.930Z,1.97
2019-05-15T20:41:38.629Z,2.10
2019-05-15T20:45:01.171Z,1.93
2019-05-15T20:48:23.927Z,2.03
2019-05-15T20:51:48.778Z,2.10
2019-05-15T20:55:10.321Z,2.80
2019-05-15T20:58:32.529Z,1.70
2019-05-15T21:01:54.675Z,1.90
2019-05-15T21:05:18.650Z,1.80
2019-05-15T21:08:41.301Z,1.90
2019-05-15T21:12:04.069Z,2.50
2019-05-15T21:15:26.103Z,2.03
2019-05-15T21:18:48.199Z,2.10
2019-05-15T21:22:11.063Z,2.00
2019-05-15T21:25:33.927Z,2.30
2019-05-15T21:28:58.283Z,2.10
2019-05-15T21:32:20.866Z,2.30
2019-05-15T21:35:43.495Z,2.47
2019-05-15T21:39:06.811Z,1.80
2019-05-15T21:42:29.467Z,3.27
2019-05-15T21:45:51.946Z,2.50
2019-05-15T21:49:14.049Z,1.80
2019-05-15T21:52:38.378Z,2.20
2019-05-15T21:56:00.463Z,2.00
2019-05-15T21:59:22.746Z,2.00
2019-05-15T22:02:45.235Z,1.57
2019-05-15T22:06:08.763Z,1.83
2019-05-15T22:09:31.439Z,1.60
2019-05-15T22:12:53.824Z,1.60
2019-05-15T22:16:18.440Z,1.70
2019-05-15T22:19:41.400Z,1.70
2019-05-15T22:23:04.549Z,1.50
2019-05-15T22:26:29.023Z,1.47
2019-05-15T22:29:51.155Z,1.30
2019-05-15T22:33:13.555Z,1.53
2019-05-15T22:36:36.010Z,1.50
2019-05-15T22:40:00.772Z,1.70
2019-05-15T22:43:22.330Z,1.40
2019-05-15T22:46:45.096Z,1.40
2019-05-15T22:50:08.481Z,1.67
2019-05-15T22:53:31.233Z,1.40
2019-05-15T22:56:53.895Z,1.50
2019-05-15T23:00:16.708Z,1.77
2019-05-15T23:03:39.674Z,1.37
2019-05-15T23:07:02.513Z,2.00
2019-05-15T23:10:25.142Z,2.10
2019-05-15T23:13:48.425Z,1.80
2019-05-15T23:17:11.135Z,1.50
2019-05-15T23:20:33.565Z,1.57
2019-05-15T23:23:55.619Z,1.90
2019-05-15T23:27:18.561Z,2.20
2019-05-15T23:30:41.075Z,2.57
2019-05-15T23:34:03.806Z,2.37
2019-05-15T23:37:28.062Z,2.00
2019-05-15T23:40:51.023Z,2.50
2019-05-15T23:44:13.446Z,2.00
2019-05-15T23:47:38.101Z,2.40
2019-05-15T23:51:00.318Z,1.80
2019-05-15T23:54:22.871Z,2.10
2019-05-15T23:57:45.523Z,2.47
